Latest Weather Observations for PORTABLE RFSNSW18

IDN60801

Issued at 4:33 pm EDT Friday 22 November 2019 (issued every 10 minutes, with the page automatically refreshed every 10 minutes)

About weather observations | Map of weather stations | Latest weather observations for NSW | Other Formats
Station Details ID: 250084 Name: PORTABLE RFSNSW18 Lat: -29.64 Lon: 152.10 Height: 988.0 m

Portable automatic weather stations (PAWS) are operated by other organisations, such as Fire and Emergency Services, and are included here by agreement. Portable stations may be deployed to a location for a short period and their location may be subject to change without notice. Wind observations from these stations are provided from heights of either three (3) or ten (10) metres above ground level (AGL).

Data from the previous 72 hours. | See also: Recent months for locations in New South Wales
Date/Time
EDT
Temp
°C
App
Temp
°C
Dew
Point
°C
Rel
Hum
%
Delta-T
°C
Wind Press
QNH
hPa
Press
MSL
hPa
Rain since
9am
mm
Dir  Spd
km/h
Gust
km/h
Spd
kts
Gust
kts
22/04:20pm 30.3 27.0 4.3 19 14.0 ENE 11 19 6 10 - - 0.0
22/04:10pm 31.0 27.0 5.0 19 14.2 E 15 22 8 12 - - 0.0
22/04:00pm 31.8 27.1 5.3 19 14.6 ENE 19 26 10 14 - - 0.0
22/03:50pm 32.3 27.3 3.7 16 15.4 E 19 26 10 14 - - 0.0
22/03:40pm 32.3 - 2.8 15 15.7 - - - - - - - -
22/03:30pm 30.7 - 4.3 18 14.3 - - - - - - - -
22/03:20pm 30.4 - 4.3 19 14.1 - - - - - - - -
22/03:10pm 30.7 - 4.2 18 14.3 - - - - - - - -
22/03:00pm 31.7 - 5.2 19 14.6 - - - - - - - -
22/02:50pm 32.5 - 5.2 18 15.1 - - - - - - - -
22/02:40pm 32.8 - 4.8 17 15.4 - - - - - - - -
22/02:30pm 32.8 - 5.3 18 15.3 - - - - - - - -
22/02:20pm 31.9 - 4.8 18 14.9 - - - - - - - -
22/02:10pm 32.5 - 5.7 18 14.9 - - - - - - - -
22/02:00pm 32.4 - 6.4 19 14.7 - - - - - - - -
22/01:50pm 32.0 - 5.8 19 14.6 - - - - - - - -
22/01:40pm 31.6 - 6.0 20 14.3 - - - - - - - -
22/01:30pm 31.0 - 6.0 20 13.9 - - - - - - - -
22/01:20pm 31.2 - 6.1 20 14.0 - - - - - - - -
22/01:10pm 30.9 - 5.8 20 13.9 - - - - - - - -
22/01:00pm 31.0 - 6.5 21 13.7 - - - - - - - -
22/12:50pm 30.8 - 5.3 20 14.0 - - - - - - - -
22/12:40pm 30.3 - 5.5 21 13.6 - - - - - - - -
22/12:30pm 29.7 - 4.7 20 13.5 - - - - - - - -
22/12:20pm 29.6 - 4.7 20 13.5 - - - - - - - -
22/12:10pm 29.4 - 4.5 20 13.4 - - - - - - - -
22/12:00pm 29.3 - 4.4 20 13.4 - - - - - - - -
22/11:50am 28.8 - 3.5 20 13.3 - - - - - - - -
22/11:40am 29.1 - 3.0 19 13.7 - - - - - - - -
22/11:30am 28.4 - 3.4 20 13.1 - - - - - - - -
22/11:20am 28.4 - 2.5 19 13.4 - - - - - - - -
22/11:10am 28.1 - 2.6 19 13.2 - - - - - - - -
22/11:00am 27.8 - 2.5 19 13.0 - - - - - - - -
22/10:50am 27.6 - 1.7 18 13.1 - - - - - - - -
22/10:40am 26.9 - 1.4 19 12.8 - - - - - - - -
22/10:10am 26.2 20.2 1.3 19 12.4 NNE 22 26 12 14 - - 0.0
22/10:00am 25.6 20.3 1.6 21 12.0 NE 19 26 10 14 - - 0.0
22/09:50am 25.2 19.2 1.0 20 11.9 NE 22 30 12 16 - - 0.0
22/09:40am 24.8 18.9 1.5 21 11.6 NNE 22 22 12 12 - - 0.0
22/09:30am 24.5 19.2 1.8 22 11.3 NE 19 30 10 16 - - 0.0
22/09:20am 24.3 19.0 1.8 23 11.2 NNE 19 26 10 14 - - 0.0
22/09:10am 23.7 17.8 1.7 23 10.9 N 22 26 12 14 - - 0.0
22/09:00am 23.3 17.4 1.6 24 10.7 N 22 35 12 19 - - 0.0
22/08:50am 23.0 17.7 2.0 25 10.4 N 19 26 10 14 - - 0.0
22/08:40am 22.9 17.6 2.1 25 10.3 N 19 22 10 12 - - 0.0
22/08:30am 22.7 18.2 2.2 26 10.2 NNE 15 26 8 14 - - 0.0
22/08:20am 22.1 16.8 1.6 26 10.0 N 19 22 10 12 - - 0.0
22/08:10am 21.4 16.9 1.9 27 9.5 N 15 22 8 12 - - 0.0
22/08:00am 20.5 16.1 2.5 30 8.8 NNW 15 19 8 10 - - 0.0
22/07:50am 20.6 17.0 2.8 31 8.8 NNW 11 15 6 8 - - 0.0
22/07:40am 20.1 15.7 2.8 31 8.5 NNE 15 19 8 10 - - 0.0
22/07:30am 19.4 15.0 2.5 32 8.2 N 15 19 8 10 - - 0.0
22/07:20am 18.5 15.7 3.1 36 7.5 NNW 7 15 4 8 - - 0.0
22/07:10am 17.8 15.1 3.5 38 7.0 N 7 7 4 4 - - 0.0
22/07:00am 16.6 13.8 3.1 40 6.5 N 7 7 4 4 - - 0.0
22/06:50am 15.3 13.5 7.9 61 3.9 N 7 7 4 4 - - 0.0
22/06:40am 14.6 12.3 5.5 54 4.6 N 7 11 4 6 - - 0.0
22/06:30am 14.0 11.8 9.4 74 2.5 N 11 11 6 6 - - 0.0
22/06:20am 13.2 10.7 4.8 56 4.1 NNW 7 11 4 6 - - 0.0
22/06:10am 12.5 11.0 9.0 79 1.9 N 7 11 4 6 - - 0.0
22/06:00am 12.6 11.1 9.1 79 1.9 N 7 11 4 6 - - 0.0
22/05:50am 12.9 11.4 9.1 78 2.0 NE 7 7 4 4 - - 0.0
22/05:40am 11.8 10.3 9.3 85 1.3 E 7 7 4 4 - - 0.0
22/05:30am 11.1 10.5 10.5 96 0.3 SE 4 7 2 4 - - 0.0
22/05:20am 11.1 10.5 10.5 96 0.3 NNW 4 4 2 2 - - 0.0
22/05:10am 11.2 10.7 10.6 96 0.3 NNE 4 4 2 2 - - 0.0
22/05:00am 11.4 10.8 10.5 94 0.5 NNW 4 7 2 4 - - 0.0
22/04:50am 11.5 11.0 10.9 96 0.3 N 4 7 2 4 - - 0.0
22/04:40am 11.6 10.6 10.9 95 0.4 N 7 7 4 4 - - 0.0
22/04:30am 11.6 11.1 10.9 95 0.4 WNW 4 7 2 4 - - 0.0
22/04:20am 11.8 11.5 11.3 97 0.3 WNW 4 11 2 6 - - 0.0
22/04:10am 12.1 11.2 11.3 95 0.4 N 7 15 4 8 - - 0.0
22/04:00am 12.9 12.6 11.6 92 0.7 ENE 4 7 2 4 - - 0.0
22/03:50am 12.7 11.9 11.6 93 0.6 NNE 7 7 4 4 - - 0.0
22/03:40am 11.9 11.1 11.7 99 0.1 NNW 7 11 4 6 - - 0.0
22/03:30am 12.2 12.1 12.1 99 0.1 N 4 11 2 6 - - 0.0
22/03:20am 12.1 12.0 12.1 100 0.0 NNW 4 7 2 4 - - 0.0
22/03:10am 12.2 12.1 12.2 100 0.0 NNW 4 7 2 4 - - 0.0
22/03:00am 12.3 12.3 12.3 100 0.0 N 4 7 2 4 - - 0.0
22/02:50am 12.2 12.1 12.1 99 0.1 N 4 4 2 2 - - 0.0
22/02:40am 12.4 12.4 12.3 99 0.1 N 4 11 2 6 - - 0.0
22/02:30am 12.8 13.7 12.8 100 0.0 CALM 0 7 0 4 - - 0.0
22/02:20am 12.8 13.7 12.8 100 0.0 CALM 0 4 0 2 - - 0.0
22/02:10am 12.7 12.7 12.5 99 0.1 N 4 7 2 4 - - 0.0
22/02:00am 12.9 13.0 12.7 99 0.1 NNW 4 7 2 4 - - 0.0
22/01:50am 13.1 14.0 13.0 99 0.1 CALM 0 4 0 2 - - 0.0
22/01:40am 13.0 13.9 12.8 99 0.1 CALM 0 4 0 2 - - 0.0
22/01:30am 13.1 13.2 12.8 98 0.2 NNW 4 7 2 4 - - 0.0
22/01:20am 13.3 14.3 13.1 99 0.1 CALM 0 0 0 0 - - 0.0
22/01:10am 13.4 13.6 13.1 98 0.2 NE 4 7 2 4 - - 0.0
22/01:00am 13.7 13.9 13.2 97 0.3 N 4 7 2 4 - - 0.0
22/12:50am 13.8 14.1 13.4 97 0.2 NE 4 4 2 2 - - 0.0
22/12:40am 13.9 14.2 13.3 96 0.3 W 4 4 2 2 - - 0.0
22/12:30am 14.0 15.1 13.4 96 0.3 CALM 0 4 0 2 - - 0.0
22/12:20am 14.1 15.1 13.3 95 0.5 CALM 0 0 0 0 - - 0.0
22/12:10am 14.2 15.2 13.2 94 0.6 CALM 0 4 0 2 - - 0.0
22/12:00am 14.5 14.7 13.2 92 0.8 NNW 4 4 2 2 - - 0.0
 
Date/Time
EDT
Temp
°C
App
Temp
°C
Dew
Point
°C
Rel
Hum
%
Delta-T
°C
Wind Press
QNH
hPa
Press
MSL
hPa
Rain since
9am
mm
Dir  Spd
km/h
Gust
km/h
Spd
kts
Gust
kts
21/11:50pm 14.9 16.0 13.4 91 0.9 CALM 0 4 0 2 - - 0.0
21/11:40pm 15.3 15.8 13.9 91 0.8 NNE 4 4 2 2 - - 0.0
21/11:30pm 15.4 15.9 13.9 91 0.9 NNE 4 7 2 4 - - 0.0
21/11:20pm 15.6 16.9 14.1 91 0.9 CALM 0 4 0 2 - - 0.0
21/11:10pm 15.9 17.2 14.2 90 1.0 CALM 0 4 0 2 - - 0.0
21/11:00pm 16.2 16.8 14.2 88 1.2 SE 4 7 2 4 - - 0.0
21/10:50pm 16.4 17.7 14.2 87 1.3 CALM 0 4 0 2 - - 0.0
21/10:40pm 16.7 18.0 14.2 85 1.5 CALM 0 4 0 2 - - 0.0
21/10:30pm 17.1 17.7 14.2 83 1.7 SE 4 7 2 4 - - 0.0
21/10:20pm 17.5 18.9 14.4 82 1.9 CALM 0 4 0 2 - - 0.0
21/10:10pm 18.0 19.4 14.3 79 2.2 CALM 0 4 0 2 - - 0.0
21/10:00pm 18.4 19.0 14.3 77 2.5 ENE 4 7 2 4 - - 0.0
21/09:50pm 18.6 19.2 14.3 76 2.6 ENE 4 4 2 2 - - 0.0
21/09:40pm 19.0 19.5 14.1 73 3.0 ENE 4 7 2 4 - - 0.0
21/09:30pm 19.3 19.9 14.2 72 3.1 ENE 4 7 2 4 - - 0.0
21/09:20pm 19.6 20.2 14.2 71 3.3 ESE 4 7 2 4 - - 0.0
21/09:10pm 19.8 20.3 14.0 69 3.5 E 4 7 2 4 - - 0.0
21/09:00pm 20.0 20.6 14.2 69 3.5 NE 4 7 2 4 - - 0.0
21/08:50pm 20.4 21.0 14.2 67 3.8 E 4 7 2 4 - - 0.0
21/08:40pm 20.8 21.3 14.1 65 4.1 E 4 4 2 2 - - 0.0
21/08:30pm 21.2 21.7 14.1 64 4.3 SSE 4 7 2 4 - - 0.0
21/08:20pm 21.5 21.4 14.0 62 4.6 SSE 7 11 4 6 - - 0.0
21/08:10pm 21.8 21.8 14.1 61 4.7 NW 7 7 4 4 - - 0.0
21/08:00pm 22.2 22.1 14.0 59 5.0 WSW 7 19 4 10 - - 0.0
21/07:50pm 22.5 22.4 13.8 58 5.3 SE 7 11 4 6 - - 0.0
21/07:40pm 23.0 22.8 13.6 55 5.7 SSE 7 15 4 8 - - 0.0
21/07:30pm 23.6 23.4 13.5 53 6.1 SE 7 11 4 6 - - 0.0
21/07:20pm 24.2 23.9 13.2 50 6.7 SSE 7 11 4 6 - - 0.0
21/07:10pm 24.7 24.3 13.0 48 7.1 SW 7 11 4 6 - - 0.0
21/07:00pm 25.2 23.9 12.4 45 7.7 E 11 15 6 8 - - 0.0
21/06:50pm 25.5 24.8 11.9 42 8.1 E 7 11 4 6 - - 0.0
21/06:40pm 25.8 25.0 11.7 41 8.4 SE 7 15 4 8 - - 0.0
21/06:30pm 25.9 25.1 11.7 41 8.5 E 7 11 4 6 - - 0.0
21/06:20pm 25.9 24.3 11.7 41 8.5 E 11 15 6 8 - - 0.0
21/06:10pm 26.0 24.5 11.9 41 8.4 SE 11 19 6 10 - - 0.0
21/06:00pm 26.2 24.7 11.8 40 8.6 E 11 15 6 8 - - 0.0
21/05:50pm 26.5 25.0 12.0 40 8.7 E 11 15 6 8 - - 0.0
21/05:40pm 27.2 25.7 12.0 38 9.1 - 11 15 6 8 - - 0.0
21/05:30pm 28.1 26.7 12.3 37 9.6 E 11 19 6 10 - - 0.0
21/05:20pm 27.7 27.0 11.9 37 9.5 E 7 15 4 8 - - 0.0
21/05:10pm 26.8 25.4 12.2 40 8.8 E 11 19 6 10 - - 0.0
21/05:00pm 27.4 26.1 12.4 39 9.1 E 11 19 6 10 - - 0.0
21/04:50pm 28.4 27.2 12.7 38 9.6 SE 11 22 6 12 - - 0.0
21/04:40pm 27.6 25.5 12.4 39 9.2 E 15 22 8 12 - - 0.0
21/04:30pm 27.7 26.5 12.9 40 9.1 ESE 11 19 6 10 - - 0.0
21/04:20pm 27.7 26.5 12.8 39 9.1 E 11 15 6 8 - - 0.0
21/04:10pm 28.1 26.2 13.0 39 9.3 E 15 22 8 12 - - 0.0
21/04:00pm 28.0 26.1 13.1 39 9.2 E 15 22 8 12 - - 0.0
21/03:50pm 28.2 26.2 12.7 38 9.5 E 15 19 8 10 - - 0.0
21/03:40pm 28.1 26.9 12.9 39 9.3 SSE 11 19 6 10 - - 0.0
21/03:30pm 28.3 25.6 13.0 39 9.4 ESE 19 26 10 14 - - 0.0
21/03:20pm 29.5 27.6 13.1 36 10.1 SE 15 22 8 12 - - 0.0
21/03:10pm 29.3 26.7 13.1 37 10.0 ESE 19 26 10 14 - - 0.0
21/03:00pm 29.2 27.4 13.3 37 9.8 ESE 15 19 8 10 - - 0.0
21/02:50pm 30.0 29.1 13.8 37 10.1 ESE 11 22 6 12 - - 0.0
21/02:40pm 29.4 27.7 13.6 38 9.8 E 15 22 8 12 - - 0.0
21/02:30pm 29.4 27.7 13.7 38 9.8 ESE 15 19 8 10 - - 0.0
21/02:20pm 29.5 28.5 13.3 37 10.0 ESE 11 26 6 14 - - 0.0
21/02:10pm 29.9 28.1 13.3 36 10.3 S 15 19 8 10 - - 0.0
21/02:00pm 29.9 28.1 13.4 36 10.3 E 15 30 8 16 - - 0.0
21/01:50pm 29.2 27.3 13.1 37 9.9 ENE 15 22 8 12 - - 0.0
21/01:40pm 28.6 26.1 13.5 39 9.4 NE 19 30 10 16 - - 0.0
21/01:30pm 27.5 26.8 14.4 44 8.2 W 11 15 6 8 - - 0.0
21/01:20pm 28.2 27.7 14.9 44 8.4 W 11 15 6 8 - - 0.0
21/01:10pm 28.0 26.4 13.8 41 8.8 ENE 15 19 8 10 - - 0.0
21/01:00pm 28.5 26.8 13.6 40 9.2 SSE 15 19 8 10 - - 0.0
21/12:50pm 28.3 25.8 13.5 40 9.2 NE 19 30 10 16 - - 0.0
21/12:40pm 28.6 26.9 13.6 39 9.3 SE 15 22 8 12 - - 0.0
21/12:30pm 27.9 27.2 14.3 43 8.5 NNW 11 19 6 10 - - 0.0
21/12:20pm 28.1 27.2 13.7 41 8.9 E 11 19 6 10 - - 0.0
21/12:10pm 27.3 26.4 13.8 43 8.4 NNW 11 19 6 10 - - 0.0
21/12:00pm 27.1 25.4 13.5 43 8.4 ENE 15 26 8 14 - - 0.0
21/11:50am 26.1 23.6 13.5 45 7.7 E 19 22 10 12 - - 0.0
21/11:40am 26.4 25.4 13.4 44 8.0 - 11 19 6 10 - - 0.0
21/11:30am 25.8 23.3 13.4 46 7.6 ENE 19 26 10 14 - - 0.0
21/11:20am 25.9 24.3 13.9 47 7.4 S 15 19 8 10 - - 0.0
21/11:10am 25.3 24.3 13.4 47 7.3 SSE 11 19 6 10 - - 0.0
21/11:00am 24.5 22.6 13.1 49 6.9 E 15 22 8 12 - - 0.0
21/10:50am 24.0 22.3 13.6 52 6.3 E 15 22 8 12 - - 0.0
21/10:40am 23.9 22.2 13.6 52 6.3 S 15 22 8 12 - - 0.0
21/10:30am - - 13.4 - - SSW 15 19 8 10 - - 0.0
21/10:20am - - 14.5 - - E 15 22 8 12 - - 0.0
21/10:10am - - 13.8 - - SW 11 19 6 10 - - 0.0
21/10:00am - - 13.8 - - SSE 15 22 8 12 - - 0.0
21/09:50am - - 14.0 - - E 15 22 8 12 - - 0.0
21/09:40am - - 14.1 - - E 19 22 10 12 - - 0.0
21/09:30am - - 14.3 - - ESE 11 15 6 8 - - 0.0
21/09:20am - - 14.2 - - S 11 15 6 8 - - 0.0
21/09:10am - - 14.1 - - E 11 15 6 8 - - 0.0
21/09:00am - - 14.2 - - E 11 15 6 8 - - 0.0
21/08:50am - - 14.5 - - E 15 19 8 10 - - 0.0
21/08:40am - - 14.6 - - E 11 15 6 8 - - 0.0
21/08:30am - - 14.6 - - ESE 11 19 6 10 - - 0.0
21/08:20am - - 15.0 - - E 11 19 6 10 - - 0.0
21/08:10am - - 14.9 - - E 11 15 6 8 - - 0.0
21/08:00am - - 15.0 - - ESE 11 15 6 8 - - 0.0
21/07:50am - - 15.2 - - E 11 19 6 10 - - 0.0
21/07:40am - - 15.3 - - SSE 7 11 4 6 - - 0.0
21/07:30am - - 15.6 - - SW 4 7 2 4 - - 0.0
21/07:20am - - 15.6 - - SE 4 4 2 2 - - 0.0
21/07:10am - - 15.5 - - ESE 4 4 2 2 - - 0.0
21/07:00am - - 15.5 - - CALM 0 4 0 2 - - 0.0
21/06:50am - - 15.4 - - CALM 0 4 0 2 - - 0.0
21/06:40am - - 15.4 - - SSW 4 4 2 2 - - 0.0
21/06:30am - - 15.3 - - CALM 0 4 0 2 - - 0.0
21/06:20am - - 15.2 - - CALM 0 0 0 0 - - 0.0
21/06:10am - - 15.2 - - CALM 0 0 0 0 - - 0.0
21/06:00am - - 15.3 - - CALM 0 4 0 2 - - 0.0
21/05:50am - - 15.3 - - CALM 0 4 0 2 - - 0.0
21/05:40am - - 15.3 - - CALM 0 4 0 2 - - 0.0
21/05:30am - - 15.3 - - CALM 0 4 0 2 - - 0.0
21/05:20am - - 15.3 - - WSW 4 7 2 4 - - 0.0
21/04:30am 15.0 16.5 14.6 97 0.2 CALM 0 4 0 2 - - 0.0
21/04:20am 15.3 16.8 14.7 96 0.4 CALM 0 4 0 2 - - 0.0
21/04:10am 15.5 16.3 14.8 96 0.4 ENE 4 7 2 4 - - 0.0
21/04:00am 15.6 16.5 15.0 96 0.4 SW 4 7 2 4 - - 0.0
21/03:50am 15.6 16.4 14.9 96 0.4 E 4 7 2 4 - - 0.0
21/03:40am 15.6 16.4 14.9 96 0.4 SSE 4 7 2 4 - - 0.0
21/03:30am 15.6 16.4 14.8 95 0.5 N 4 7 2 4 - - 0.0
21/03:20am 15.7 16.5 14.8 94 0.5 ESE 4 7 2 4 - - 0.0
21/03:10am 15.8 16.6 14.7 93 0.7 ESE 4 4 2 2 - - 0.0
21/03:00am 16.0 16.8 14.7 92 0.8 SW 4 11 2 6 - - 0.0
21/02:50am 16.2 16.4 14.7 91 0.9 SW 7 11 4 6 - - 0.0
21/02:40am 16.2 17.0 14.7 91 0.9 SSE 4 11 2 6 - - 0.0
21/02:30am 16.2 17.0 14.7 91 0.9 S 4 7 2 4 - - 0.0
21/02:20am 16.2 16.4 14.6 90 1.0 SW 7 7 4 4 - - 0.0
21/02:10am 16.2 16.9 14.6 90 1.0 W 4 7 2 4 - - 0.0
21/02:00am 16.3 16.4 14.5 89 1.1 SSW 7 7 4 4 - - 0.0
21/01:50am 16.3 17.0 14.4 88 1.1 SW 4 7 2 4 - - 0.0
21/01:40am 16.4 17.1 14.4 88 1.2 SSE 4 7 2 4 - - 0.0
21/01:30am 16.5 17.2 14.4 87 1.3 - 4 11 2 6 - - 0.0
21/01:20am 16.6 17.2 14.2 86 1.4 E 4 7 2 4 - - 0.0
21/01:10am 16.7 17.2 14.0 84 1.6 ESE 4 7 2 4 - - 0.0
21/01:00am 16.7 17.1 13.8 83 1.7 ENE 4 7 2 4 - - 0.0
21/12:50am 16.7 16.5 13.6 82 1.8 SW 7 15 4 8 - - 0.0
21/12:40am 16.7 17.1 13.7 82 1.8 SE 4 7 2 4 - - 0.0
21/12:30am 16.8 16.6 13.6 81 1.9 SSE 7 11 4 6 - - 0.0
21/12:20am 16.7 16.5 13.6 82 1.8 E 7 15 4 8 - - 0.0
21/12:10am 16.7 16.5 13.7 82 1.8 SSE 7 11 4 6 - - 0.0
21/12:00am 16.6 16.5 13.8 83 1.7 NE 7 11 4 6 - - 0.0
 
Date/Time
EDT
Temp
°C
App
Temp
°C
Dew
Point
°C
Rel
Hum
%
Delta-T
°C
Wind Press
QNH
hPa
Press
MSL
hPa
Rain since
9am
mm
Dir  Spd
km/h
Gust
km/h
Spd
kts
Gust
kts
20/11:50pm 16.5 16.3 13.7 83 1.7 ESE 7 15 4 8 - - 0.0
20/11:40pm 16.3 16.7 13.6 84 1.6 E 4 7 2 4 - - 0.0
20/11:30pm 16.2 16.6 13.6 84 1.5 ESE 4 7 2 4 - - 0.0
20/11:20pm 16.3 16.7 13.7 84 1.5 ENE 4 7 2 4 - - 0.0
20/11:10pm 16.6 16.4 13.5 82 1.8 S 7 15 4 8 - - 0.0
20/11:00pm 16.8 16.6 13.7 82 1.8 SE 7 11 4 6 - - 0.0
20/10:50pm 16.9 16.8 13.8 82 1.8 SSW 7 19 4 10 - - 0.0
20/10:40pm 16.9 17.4 13.9 82 1.8 E 4 11 2 6 - - 0.0
20/10:30pm 17.0 16.9 13.9 82 1.8 SE 7 11 4 6 - - 0.0
20/10:20pm 17.1 17.0 13.9 81 1.9 E 7 15 4 8 - - 0.0
20/10:10pm 17.4 17.3 13.9 80 2.1 ESE 7 11 4 6 - - 0.0
20/10:00pm 17.7 16.9 13.9 78 2.3 E 11 15 6 8 - - 0.0
20/09:50pm 17.8 17.0 14.1 79 2.2 ENE 11 15 6 8 - - 0.0
20/09:40pm 17.9 18.0 14.4 80 2.1 SE 7 11 4 6 - - 0.0
20/09:30pm 17.9 17.9 14.2 79 2.2 SSE 7 11 4 6 - - 0.0
20/09:20pm 17.9 18.5 14.3 79 2.2 SSE 4 11 2 6 - - 0.0
20/09:10pm 17.9 17.9 14.2 79 2.2 SE 7 7 4 4 - - 0.0
20/09:00pm 17.8 17.8 14.3 80 2.1 SSE 7 11 4 6 - - 0.0
20/08:50pm 17.8 18.4 14.3 80 2.1 SE 4 11 2 6 - - 0.0
20/08:40pm 17.9 18.0 14.4 80 2.1 ESE 7 7 4 4 - - 0.0
20/08:30pm 18.1 18.2 14.4 79 2.2 ESE 7 11 4 6 - - 0.0
20/08:20pm 18.2 18.2 14.3 78 2.3 S 7 11 4 6 - - 0.0
20/08:10pm 18.4 18.4 14.2 76 2.5 ESE 7 11 4 6 - - 0.0
20/08:00pm 18.6 18.5 14.0 74 2.8 E 7 15 4 8 - - 0.0
20/07:50pm 18.8 18.6 13.7 72 3.0 - 7 15 4 8 - - 0.0
20/07:40pm 19.1 19.4 13.4 69 3.4 ESE 4 11 2 6 - - 0.0
20/07:30pm 19.5 19.2 13.3 67 3.7 SSE 7 11 4 6 - - 0.0
20/07:20pm 19.9 19.5 13.0 64 4.1 E 7 11 4 6 - - 0.0
20/07:10pm 20.3 19.8 12.7 61 4.5 SSE 7 15 4 8 - - 0.0
20/07:00pm 20.6 20.1 12.5 59 4.8 SE 7 15 4 8 - - 0.0
20/06:50pm 21.0 20.4 12.2 57 5.2 SSW 7 11 4 6 - - 0.0
20/06:40pm 21.3 20.7 12.4 57 5.3 SE 7 11 4 6 - - 0.0
20/06:30pm 21.5 20.1 12.3 55 5.4 E 11 15 6 8 - - 0.0
20/06:20pm 21.8 19.7 12.3 54 5.6 SW 15 22 8 12 - - 0.0
20/06:10pm 22.1 19.9 12.1 53 5.9 WSW 15 19 8 10 - - 0.0
20/06:00pm 22.6 20.4 12.0 51 6.3 SSW 15 26 8 14 - - 0.0
20/05:50pm 23.1 21.0 12.3 50 6.4 SW 15 19 8 10 - - 0.0
20/05:40pm 23.5 21.4 12.3 49 6.7 SSW 15 26 8 14 - - 0.0
20/05:30pm 24.1 22.0 12.3 47 7.0 SW 15 22 8 12 - - 0.0
20/05:20pm 24.7 22.6 12.3 46 7.4 SW 15 19 8 10 - - 0.0
20/05:10pm 24.9 22.8 12.3 45 7.5 SSW 15 19 8 10 - - 0.0
20/05:00pm 25.1 23.0 12.3 45 7.7 SW 15 19 8 10 - - 0.0
20/04:50pm 25.5 22.6 12.3 43 7.9 S 19 26 10 14 - - 0.0
20/04:40pm 26.2 24.0 12.2 41 8.4 SE 15 22 8 12 - - 0.0
20/04:30pm 26.7 24.5 12.1 40 8.8 SW 15 26 8 14 - - 0.0
20/04:20pm 27.1 24.1 11.9 38 9.1 SW 19 35 10 19 - - 0.0
20/04:10pm 27.8 24.7 11.7 36 9.7 SW 19 22 10 12 - - 0.0
20/04:00pm 28.8 26.3 11.2 33 10.5 WSW 15 26 8 14 - - 0.0
20/03:50pm 29.1 25.8 10.8 32 10.9 SW 19 26 10 14 - - 0.0
20/03:40pm 29.6 26.9 10.4 30 11.4 WSW 15 26 8 14 - - 0.0
20/03:30pm 29.6 26.7 9.8 29 11.6 WSW 15 26 8 14 - - 0.0
20/03:20pm 30.0 26.4 9.9 28 11.8 SW 19 30 10 16 - - 0.0
20/03:10pm 30.9 27.3 9.9 27 12.4 WSW 19 26 10 14 - - 0.0
20/03:00pm 31.4 27.7 9.5 25 12.9 SW 19 22 10 12 - - 0.0
20/02:50pm 32.4 29.3 8.8 23 13.8 SW 15 19 8 10 - - 0.0
20/02:40pm 32.8 30.4 8.5 22 14.2 NW 11 15 6 8 - - 0.0
20/02:30pm 32.4 27.9 6.2 19 14.7 SE 19 26 10 14 - - 0.0
20/02:20pm 33.5 28.2 2.1 13 16.6 S 19 26 10 14 - - 0.0
20/02:10pm 33.0 27.4 3.4 15 16.0 N 22 30 12 16 - - 0.0
20/02:00pm 34.3 29.1 5.4 16 16.2 NNW 22 30 12 16 - - 0.0
20/01:50pm 34.1 27.0 -1.3 10 17.8 N 26 35 14 19 - - 0.0
20/01:40pm 33.6 27.8 -1.4 10 17.5 NNW 19 30 10 16 - - 0.0
20/01:30pm 33.5 27.1 -1.8 10 17.5 N 22 32 12 17 - - 0.0
20/01:20pm 33.5 26.4 -1.1 11 17.4 N 26 32 14 17 - - 0.0
20/01:10pm 33.7 27.7 -2.8 9 17.9 NNE 19 30 10 16 - - 0.0
20/01:00pm 33.5 26.1 -3.3 9 17.8 NNW 26 35 14 19 - - 0.0
20/12:50pm 33.0 27.1 -2.1 10 17.3 NW 19 26 10 14 - - 0.0
20/12:40pm 32.8 26.3 -2.3 10 17.2 W 22 30 12 16 - - 0.0
20/12:30pm 32.9 26.5 -1.4 11 17.1 N 22 35 12 19 - - 0.0
20/12:20pm 32.2 26.4 -1.6 11 16.7 NE 19 39 10 21 - - 0.0
20/12:10pm 31.9 24.7 -1.7 11 16.6 NNW 26 35 14 19 - - 0.0
20/12:00pm 32.0 26.9 -1.9 11 16.7 ESE 15 22 8 12 - - 0.0
20/11:50am 31.4 24.2 -1.9 11 16.3 NNE 26 32 14 17 - - 0.0
20/11:40am 31.4 24.4 -0.8 12 16.0 NNE 26 32 14 17 - - 0.0
20/11:30am 31.2 24.9 -0.8 12 15.9 N 22 35 12 19 - - 0.0
20/11:20am 31.1 25.5 -0.2 13 15.7 NNW 19 26 10 14 - - 0.0
20/11:10am 30.6 24.4 -0.5 13 15.5 NNW 22 30 12 16 - - 0.0
20/11:00am 30.1 23.1 -0.3 14 15.2 N 26 35 14 19 - - 0.0
20/10:50am 29.5 23.3 0.0 15 14.7 NNW 22 32 12 17 - - 0.0
20/10:40am 29.7 22.8 0.0 14 14.8 N 26 39 14 21 - - 0.0
20/10:30am 29.5 23.3 -0.1 14 14.7 N 22 39 12 21 - - 0.0
20/10:20am 29.2 22.3 0.4 15 14.4 NNW 26 43 14 23 - - 0.0
20/10:10am 29.0 22.9 0.3 15 14.3 N 22 30 12 16 - - 0.0
20/10:00am 28.4 22.5 1.6 17 13.6 NE 22 30 12 16 - - 0.0
20/09:50am 28.1 - 1.6 18 13.5 - - - - - - - 0.0
20/09:40am 27.7 - 1.9 19 13.2 - - - - - - - 0.0
20/09:30am 27.5 - 2.4 19 12.9 - - - - - - - 0.0
20/09:20am 27.1 - 2.4 20 12.7 - - - - - - - 0.0
20/09:10am 26.9 - 3.2 21 12.3 - - - - - - - 0.0
20/09:00am 26.8 - 1.6 19 12.7 - - - - - - - 0.0
20/08:50am 26.5 - 1.7 20 12.5 - - - - - - - 0.0
20/08:40am 26.6 - 2.4 21 12.4 - - - - - - - 0.0
20/08:30am 26.6 - 2.6 21 12.3 - - - - - - - 0.0
20/08:20am 26.1 - 2.9 22 11.9 - - - - - - - 0.0
20/08:10am 25.4 - 4.4 25 11.0 - - - - - - - 0.0
20/08:00am 24.3 - 5.3 29 10.1 - - - - - - - 0.0
20/07:50am 22.6 - 4.4 30 9.4 - - - - - - - 0.0
20/07:40am 20.3 - 4.8 36 7.9 - - - - - - - 0.0
20/07:30am 18.2 - 6.4 46 6.2 - - - - - - - 0.0
20/07:20am 16.6 - 7.1 53 5.0 - - - - - - - 0.0
20/07:10am 15.4 - 6.6 55 4.5 - - - - - - - 0.0
20/07:00am 14.9 - 6.4 57 4.3 - - - - - - - 0.0
20/06:50am 14.4 - 6.0 57 4.2 - - - - - - - 0.0
20/06:40am 13.2 - 5.4 59 3.9 - - - - - - - 0.0
20/06:30am 12.4 - 5.2 61 3.5 - - - - - - - 0.0
20/06:20am 10.8 - 5.1 68 2.8 - - - - - - - 0.0
20/06:10am 10.2 - 4.8 69 2.6 - - - - - - - 0.0
20/06:00am 9.4 - 4.7 72 2.2 - - - - - - - 0.0
20/05:50am 9.5 - 4.7 72 2.3 - - - - - - - 0.0
20/05:40am 9.9 - 4.8 70 2.4 - - - - - - - 0.0
20/05:30am 9.6 - 4.6 71 2.4 - - - - - - - 0.0
20/05:20am 9.6 - 4.7 71 2.3 - - - - - - - 0.0
20/05:10am 9.5 - 4.6 71 2.3 - - - - - - - 0.0
20/05:00am 9.6 - 4.8 72 2.3 - - - - - - - 0.0
20/04:50am 9.6 - 4.7 71 2.3 - - - - - - - 0.0
20/04:40am 10.1 - 5.0 70 2.4 - - - - - - - 0.0
20/04:30am 10.7 - 4.7 66 2.9 - - - - - - - 0.0
20/04:20am 10.6 - 4.6 66 2.9 - - - - - - - 0.0
20/04:10am 10.6 - 4.8 67 2.8 - - - - - - - 0.0
20/04:00am 11.0 - 4.8 65 3.0 - - - - - - - 0.0
20/03:50am 10.8 - 4.6 65 3.0 - - - - - - - 0.0
20/03:40am 10.1 - 4.7 69 2.6 - - - - - - - 0.0
20/03:30am 9.9 - 5.1 72 2.3 - - - - - - - 0.0
20/03:20am 10.3 - 5.1 70 2.5 - - - - - - - 0.0
20/03:10am 10.9 - 5.6 70 2.6 - - - - - - - 0.0
20/03:00am 11.3 - 5.0 65 3.0 - - - - - - - 0.0
20/02:50am 11.2 - 4.7 64 3.1 - - - - - - - 0.0
20/02:40am 11.2 - 5.1 66 3.0 - - - - - - - 0.0

Other formats

Comma delimited format used in spreadsheet applications
http://www.bom.gov.au/fwo/IDN60801/IDN60801.99787.axf

JavaScript Object Notation format (JSON) in row-major order
http://www.bom.gov.au/fwo/IDN60801/IDN60801.99787.json

Data quality

Most of these data are generated automatically and are frequently updated. Quality checks on data are not normally performed. It is possible for incorrect values to appear. Refer to information at About Latest Weather Observations and please check the disclaimer before using these data.